Aérodrome :
LOGIN :

S'inscrire | Disclaimer

   EN    FR    IT 

 










Légende :    VFR   VFR Marginal   IFR   IFR Intensif   IFR Très Intensif
Visi : 
Plafond : 
>= 8 km
>= 3000ft
5 à 8 km
1000 à 3000 ft
1500m à 5 km
500 à 1000 ft
800 à 1500m
200 à 500 ft
< 800m
< 200 ft
Symboles :   Orages  Brouillard  Fortes neiges  Fortes précipitations  Vent > 20 kt
SIGMETs :   Divers  Orages  Givrage  Turbulence  Onde Orograph.  Cendres Volcan.






- Altitude de l'aérodrome : 584 ft


LFPV - Villacoublay Vélizy

DERNIER METAR :
  • 250630Z AUTO 29014KT 9999 BKN009 BKN014 BKN025 01/00 Q1002 BECMG BKN010

METARs EXPIRÉS :
  • 250600Z AUTO 28012KT 9999 SCT007 BKN029 BKN034 01/M00 Q1001 TEMPO 4000 SHRA SCT015TCU
  • 250530Z AUTO 28009KT 9999 BKN006 BKN010 BKN048 01/M00 Q1001 TEMPO 4000 SHRA SCT015TCU
  • 250500Z AUTO 27011KT 9999 OVC006 01/M00 Q1001 TEMPO 4000 SHRA SCT015TCU
  • 250430Z AUTO 28010KT 9999 OVC006 01/00 Q1001 TEMPO 4000 SHRA SCT015TCU
  • 250400Z AUTO 28009KT 9999 OVC007 01/00 Q1000 TEMPO 4000 SHRA SCT015TCU

Prévision TAF périmée.



MET'MAP, la Météo Aéronautique d'un coup d'oeil ! - Copyright ORBIFLY Décembre 2007 - Disclaimer

ORBIFLY MET'MAP TEAM :

Programmation & Développement : Alexandra Zaïnal
Sur une idée originale de : Baudouin d'Aumeries
Assistance à la programmation : Marc-Olivier Méhu
Soutien technique & logistique : Manuel Goepfert

Contact : metmap@orbifly.com




SOURCES & CREDITS :

   NOAA